createdAt,value
2023-01-02T00:01:14.905Z,100.00
2023-01-02T00:03:42.860Z,100.00
2023-01-02T00:06:10.958Z,100.00
2023-01-02T00:08:39.396Z,100.00
2023-01-02T00:11:07.401Z,100.00
2023-01-02T00:13:35.274Z,100.00
2023-01-02T00:16:03.154Z,100.00
2023-01-02T00:18:32.504Z,100.00
2023-01-02T00:21:04.221Z,100.00
2023-01-02T00:23:32.562Z,100.00
2023-01-02T00:26:01.207Z,100.00
2023-01-02T00:28:29.248Z,100.00
2023-01-02T00:30:57.486Z,100.00
2023-01-02T00:33:25.826Z,100.00
2023-01-02T00:35:55.495Z,100.00
2023-01-02T00:38:23.495Z,100.00
2023-01-02T00:40:51.368Z,100.00
2023-01-02T00:43:19.255Z,100.00
2023-01-02T00:45:48.837Z,100.00
2023-01-02T00:48:16.711Z,100.00
2023-01-02T00:50:45.387Z,100.00
2023-01-02T00:53:14.825Z,100.00
2023-01-02T00:55:44.697Z,100.00
2023-01-02T00:58:12.571Z,100.00
2023-01-02T01:00:41.021Z,100.00
2023-01-02T01:03:08.962Z,100.00
2023-01-02T01:05:40.287Z,100.00
2023-01-02T01:08:08.253Z,100.00
2023-01-02T01:10:38.844Z,100.00
2023-01-02T01:13:07.300Z,100.00
2023-01-02T01:15:35.719Z,100.00
2023-01-02T01:18:03.732Z,100.00
2023-01-02T01:20:31.701Z,100.00
2023-01-02T01:22:59.624Z,100.00
2023-01-02T01:25:27.427Z,100.00
2023-01-02T01:27:56.839Z,100.00
2023-01-02T01:30:24.616Z,100.00
2023-01-02T01:32:52.485Z,100.00
2023-01-02T01:35:20.430Z,100.00
2023-01-02T01:37:48.345Z,100.00
2023-01-02T01:40:16.427Z,100.00
2023-01-02T01:42:44.372Z,100.00
2023-01-02T01:45:16.810Z,100.00
2023-01-02T01:47:48.563Z,100.00
2023-01-02T01:50:21.315Z,100.00
2023-01-02T01:52:53.745Z,100.00
2023-01-02T01:55:25.203Z,100.00
2023-01-02T01:57:57.394Z,100.00
2023-01-02T02:00:26.775Z,98.87
2023-01-02T02:02:58.486Z,94.72
2023-01-02T02:05:30.507Z,90.94
2023-01-02T02:08:05.718Z,87.91
2023-01-02T02:10:33.712Z,84.97
2023-01-02T02:13:01.665Z,83.89
2023-01-02T02:15:41.038Z,82.49
2023-01-02T02:18:22.543Z,81.42
2023-01-02T02:20:58.843Z,81.15
2023-01-02T02:24:03.040Z,80.12
2023-01-02T02:27:00.000Z,79.23
2023-01-02T02:30:00.629Z,79.08
2023-01-02T02:32:36.946Z,78.24
2023-01-02T02:35:14.494Z,77.71
2023-01-02T02:37:49.866Z,77.69
2023-01-02T02:40:26.174Z,77.12
2023-01-02T02:43:03.844Z,77.32
2023-01-02T02:45:46.880Z,77.26
2023-01-02T02:48:21.288Z,77.73
2023-01-02T02:50:56.671Z,77.75
2023-01-02T02:53:27.270Z,77.17
2023-01-02T02:55:58.616Z,76.96
2023-01-02T02:58:28.310Z,76.27
2023-01-02T03:01:03.655Z,75.92
2023-01-02T03:03:33.042Z,75.53
2023-01-02T03:06:10.211Z,75.20
2023-01-02T03:08:43.809Z,75.15
2023-01-02T03:11:13.070Z,75.10
2023-01-02T03:13:48.241Z,74.48
2023-01-02T03:16:24.043Z,74.84
2023-01-02T03:18:58.434Z,74.61
2023-01-02T03:21:35.179Z,74.35
2023-01-02T03:24:07.406Z,74.02
2023-01-02T03:26:37.603Z,74.09
2023-01-02T03:29:09.988Z,73.88
2023-01-02T03:31:40.836Z,73.53
2023-01-02T03:34:13.732Z,72.66
2023-01-02T03:36:44.044Z,72.67
2023-01-02T03:39:16.866Z,72.74
2023-01-02T03:41:51.338Z,72.70
2023-01-02T03:44:23.683Z,71.60
2023-01-02T03:46:55.244Z,71.55
2023-01-02T03:49:31.694Z,71.27
2023-01-02T03:51:59.974Z,70.72
2023-01-02T03:54:29.922Z,69.63
2023-01-02T03:57:00.697Z,69.73
2023-01-02T03:59:37.669Z,69.28
2023-01-02T04:02:11.655Z,68.98
2023-01-02T04:04:50.949Z,68.32
2023-01-02T04:07:27.214Z,67.93
2023-01-02T04:09:56.502Z,67.97
2023-01-02T04:12:26.724Z,68.03
2023-01-02T04:15:00.528Z,67.52
2023-01-02T04:17:32.897Z,67.64
2023-01-02T04:20:06.552Z,67.39
2023-01-02T04:22:38.175Z,67.06
2023-01-02T04:25:11.071Z,67.02
2023-01-02T04:27:44.417Z,66.97
2023-01-02T04:30:12.776Z,66.64
2023-01-02T04:32:43.224Z,66.66
2023-01-02T04:35:16.739Z,66.69
2023-01-02T04:37:45.773Z,66.53
2023-01-02T04:40:18.434Z,66.66
2023-01-02T04:42:46.713Z,67.65
2023-01-02T04:45:15.138Z,68.25
2023-01-02T04:47:43.072Z,68.83
2023-01-02T04:50:12.483Z,69.96
2023-01-02T04:52:40.497Z,70.79
2023-01-02T04:55:10.070Z,70.99
2023-01-02T04:57:38.499Z,71.57
2023-01-02T05:00:08.896Z,72.61
2023-01-02T05:02:37.903Z,73.55
2023-01-02T05:05:06.942Z,74.58
2023-01-02T05:07:36.889Z,76.00
2023-01-02T05:10:05.005Z,77.55
2023-01-02T05:12:35.094Z,78.95
2023-01-02T05:15:08.075Z,80.23
2023-01-02T05:17:36.541Z,82.37
2023-01-02T05:20:06.094Z,84.19
2023-01-02T05:22:51.283Z,86.35
2023-01-02T05:25:21.181Z,88.75
2023-01-02T05:27:49.060Z,92.16
2023-01-02T05:30:17.212Z,94.98
2023-01-02T05:32:45.170Z,98.89
2023-01-02T05:35:13.020Z,100.00
2023-01-02T05:37:40.931Z,100.00
2023-01-02T05:40:10.375Z,100.00
2023-01-02T05:42:39.696Z,100.00
2023-01-02T05:45:08.840Z,100.00
2023-01-02T05:47:36.899Z,100.00
2023-01-02T05:50:05.479Z,100.00
2023-01-02T05:52:33.584Z,100.00
2023-01-02T05:55:02.182Z,100.00
2023-01-02T05:57:30.048Z,100.00
2023-01-02T05:59:59.365Z,100.00
2023-01-02T06:02:27.255Z,100.00
2023-01-02T06:04:55.174Z,100.00
2023-01-02T06:07:23.063Z,100.00
2023-01-02T06:09:50.958Z,100.00
2023-01-02T06:12:18.731Z,100.00
2023-01-02T06:14:46.808Z,100.00
2023-01-02T06:17:16.009Z,100.00
2023-01-02T06:19:47.303Z,100.00
2023-01-02T06:22:20.320Z,100.00
2023-01-02T06:24:48.235Z,100.00
2023-01-02T06:27:16.274Z,100.00
2023-01-02T06:29:44.248Z,100.00
2023-01-02T06:32:12.392Z,100.00
2023-01-02T06:34:41.797Z,100.00
2023-01-02T06:37:10.383Z,100.00
2023-01-02T06:39:38.465Z,100.00
2023-01-02T06:42:06.650Z,100.00
2023-01-02T06:44:34.694Z,100.00
2023-01-02T06:47:02.577Z,100.00
2023-01-02T06:49:30.362Z,100.00
2023-01-02T06:51:59.756Z,100.00
2023-01-02T06:54:28.281Z,100.00
2023-01-02T06:56:56.079Z,100.00
2023-01-02T06:59:24.112Z,100.00
2023-01-02T07:01:52.036Z,100.00
2023-01-02T07:04:20.002Z,98.43
2023-01-02T07:06:47.951Z,95.75
2023-01-02T07:09:17.373Z,93.12
2023-01-02T07:11:45.347Z,90.47
2023-01-02T07:14:13.460Z,90.34
2023-01-02T07:16:41.429Z,89.32
2023-01-02T07:19:09.794Z,87.04
2023-01-02T07:21:37.739Z,86.71
2023-01-02T07:24:06.289Z,86.03
2023-01-02T07:26:35.928Z,85.77
2023-01-02T07:29:03.847Z,85.17
2023-01-02T07:31:31.878Z,85.87
2023-01-02T07:33:59.810Z,85.43
2023-01-02T07:36:27.803Z,85.49
2023-01-02T07:38:57.343Z,85.73
2023-01-02T07:41:27.184Z,85.38
2023-01-02T07:43:56.729Z,85.33
2023-01-02T07:46:25.298Z,85.59
2023-01-02T07:48:53.227Z,85.37
2023-01-02T07:51:27.085Z,85.59
2023-01-02T07:53:56.635Z,85.17
2023-01-02T07:56:24.677Z,85.53
2023-01-02T07:58:53.082Z,84.55
2023-01-02T08:01:22.613Z,83.75
2023-01-02T08:03:50.876Z,83.15
2023-01-02T08:06:19.909Z,82.39
2023-01-02T08:08:48.670Z,81.35
2023-01-02T08:11:19.697Z,80.38
2023-01-02T08:13:48.467Z,79.44
2023-01-02T08:16:18.811Z,78.74
2023-01-02T08:18:51.264Z,77.84
2023-01-02T08:21:19.230Z,78.06
2023-01-02T08:23:47.268Z,77.75
2023-01-02T08:26:15.178Z,77.37
2023-01-02T08:28:43.517Z,76.70
2023-01-02T08:31:12.931Z,76.69
2023-01-02T08:33:41.429Z,75.82
2023-01-02T08:36:11.338Z,75.50
2023-01-02T08:38:39.472Z,74.42
2023-01-02T08:41:07.731Z,74.02
2023-01-02T08:43:37.119Z,74.03
2023-01-02T08:46:06.668Z,74.24
2023-01-02T08:48:34.840Z,74.05
2023-01-02T08:51:03.216Z,74.22
2023-01-02T08:53:32.657Z,73.57
2023-01-02T08:56:21.273Z,75.09
2023-01-02T08:58:56.265Z,76.47
2023-01-02T09:01:25.818Z,77.40
2023-01-02T09:03:54.782Z,78.24
2023-01-02T09:06:24.736Z,80.43
2023-01-02T09:08:55.469Z,81.23
2023-01-02T09:11:25.957Z,79.97
2023-01-02T09:13:54.569Z,80.51
2023-01-02T09:16:23.317Z,79.43
2023-01-02T09:18:51.946Z,79.39
2023-01-02T09:21:20.078Z,78.61
2023-01-02T09:23:48.117Z,79.42
2023-01-02T09:26:18.223Z,80.06
2023-01-02T09:28:46.882Z,82.56
2023-01-02T09:31:16.898Z,82.71
2023-01-02T09:33:46.499Z,83.63
2023-01-02T09:36:16.452Z,84.67
2023-01-02T09:38:44.717Z,85.84
2023-01-02T09:41:33.597Z,86.90
2023-01-02T09:44:04.769Z,88.95
2023-01-02T09:46:39.732Z,89.80
2023-01-02T09:49:12.587Z,92.31
2023-01-02T09:51:40.839Z,93.58
2023-01-02T09:54:18.313Z,94.61
2023-01-02T09:56:53.124Z,95.52
2023-01-02T09:59:28.922Z,94.50
2023-01-02T10:02:10.894Z,92.76
2023-01-02T10:04:55.232Z,92.52
2023-01-02T10:07:31.821Z,91.25
2023-01-02T10:10:08.358Z,92.43
2023-01-02T10:12:47.751Z,92.33
2023-01-02T10:15:21.210Z,93.00
2023-01-02T10:17:54.109Z,95.48
2023-01-02T10:20:28.202Z,96.47
2023-01-02T10:23:01.396Z,98.54
2023-01-02T10:25:33.888Z,100.00
2023-01-02T10:28:24.779Z,100.00
2023-01-02T10:30:56.967Z,100.00
2023-01-02T10:33:31.360Z,100.00
2023-01-02T10:36:02.697Z,100.00
2023-01-02T10:38:37.431Z,100.00
2023-01-02T10:41:06.315Z,100.00
2023-01-02T10:43:37.117Z,100.00
2023-01-02T10:46:05.900Z,100.00
2023-01-02T10:48:37.299Z,100.00
2023-01-02T10:51:11.005Z,100.00
2023-01-02T10:53:39.261Z,100.00
2023-01-02T10:56:09.471Z,100.00
2023-01-02T10:58:47.256Z,100.00
2023-01-02T11:01:19.249Z,100.00
2023-01-02T11:03:48.436Z,100.00
2023-01-02T11:06:35.241Z,100.00
2023-01-02T11:09:20.187Z,100.00
2023-01-02T11:11:53.607Z,100.00
2023-01-02T11:14:30.920Z,100.00
2023-01-02T11:17:08.305Z,100.00
2023-01-02T11:19:44.721Z,100.00
2023-01-02T11:22:15.555Z,100.00
2023-01-02T11:25:00.003Z,100.00
2023-01-02T11:27:31.835Z,100.00
2023-01-02T11:30:02.770Z,100.00
2023-01-02T11:32:41.197Z,100.00
2023-01-02T11:35:33.390Z,100.00
2023-01-02T11:38:03.376Z,100.00
2023-01-02T11:40:33.601Z,100.00
2023-01-02T11:43:25.536Z,100.00
2023-01-02T11:45:56.078Z,100.00
2023-01-02T11:48:25.947Z,100.00
2023-01-02T11:50:54.641Z,100.00
2023-01-02T11:53:28.710Z,100.00
2023-01-02T11:56:03.729Z,100.00
2023-01-02T11:58:40.123Z,100.00
2023-01-02T12:01:20.166Z,100.00
2023-01-02T12:03:48.914Z,100.00
2023-01-02T12:06:21.288Z,100.00
2023-01-02T12:09:04.896Z,100.00
2023-01-02T12:11:52.316Z,100.00
2023-01-02T12:14:23.277Z,100.00
2023-01-02T12:17:00.237Z,100.00
2023-01-02T12:20:06.089Z,100.00
2023-01-02T12:22:58.908Z,100.00
2023-01-02T12:25:54.861Z,100.00
2023-01-02T12:28:39.096Z,100.00
2023-01-02T12:31:24.749Z,100.00
2023-01-02T12:34:07.952Z,100.00
2023-01-02T12:36:58.443Z,100.00
2023-01-02T12:40:04.769Z,100.00
2023-01-02T12:42:54.662Z,100.00
2023-01-02T12:45:33.867Z,100.00
2023-01-02T12:48:21.245Z,100.00
2023-01-02T12:51:03.973Z,100.00
2023-01-02T12:54:18.985Z,100.00
2023-01-02T12:56:44.408Z,100.00
2023-01-02T12:59:34.190Z,100.00
2023-01-02T13:02:09.542Z,100.00
2023-01-02T13:04:45.358Z,100.00
2023-01-02T13:07:19.382Z,100.00
2023-01-02T13:09:48.401Z,100.00
2023-01-02T13:12:18.395Z,100.00
2023-01-02T13:14:51.988Z,100.00
2023-01-02T13:17:35.865Z,100.00
2023-01-02T13:20:12.579Z,100.00
2023-01-02T13:22:55.053Z,100.00
2023-01-02T13:25:25.085Z,100.00
2023-01-02T13:27:55.858Z,100.00
2023-01-02T13:30:45.645Z,100.00
2023-01-02T13:33:23.047Z,100.00
2023-01-02T13:35:52.079Z,100.00
2023-01-02T13:38:26.459Z,100.00
2023-01-02T13:40:57.745Z,100.00
2023-01-02T13:43:29.879Z,100.00
2023-01-02T13:45:59.361Z,100.00
2023-01-02T13:48:34.640Z,100.00
2023-01-02T13:51:04.975Z,100.00
2023-01-02T13:53:39.631Z,100.00
2023-01-02T13:56:12.557Z,100.00
2023-01-02T13:58:45.831Z,100.00
2023-01-02T14:01:42.956Z,100.00
2023-01-02T14:04:32.104Z,100.00
2023-01-02T14:07:39.988Z,100.00
2023-01-02T14:10:34.777Z,100.00
2023-01-02T14:13:13.325Z,100.00
2023-01-02T14:16:23.000Z,100.00
2023-01-02T14:19:06.437Z,100.00
2023-01-02T14:21:37.557Z,100.00
2023-01-02T14:24:17.379Z,100.00
2023-01-02T14:26:53.977Z,100.00
2023-01-02T14:29:23.951Z,100.00
2023-01-02T14:32:01.252Z,100.00
2023-01-02T14:34:30.238Z,100.00
2023-01-02T14:37:01.507Z,100.00
2023-01-02T14:39:33.999Z,100.00
2023-01-02T14:42:31.686Z,100.00
2023-01-02T14:45:04.564Z,100.00
2023-01-02T14:47:39.836Z,100.00
2023-01-02T14:50:15.771Z,100.00
2023-01-02T14:52:49.422Z,100.00
2023-01-02T14:55:23.813Z,100.00
2023-01-02T14:57:55.629Z,100.00
2023-01-02T15:00:29.976Z,100.00
2023-01-02T15:03:10.369Z,100.00
2023-01-02T15:05:48.123Z,100.00
2023-01-02T15:08:18.986Z,100.00
2023-01-02T15:11:20.078Z,100.00
2023-01-02T15:14:04.204Z,100.00
2023-01-02T15:16:46.349Z,100.00
2023-01-02T15:19:21.437Z,100.00
2023-01-02T15:21:49.783Z,100.00
2023-01-02T15:24:21.779Z,100.00
2023-01-02T15:26:50.847Z,100.00
2023-01-02T15:29:26.371Z,100.00
2023-01-02T15:31:57.009Z,100.00
2023-01-02T15:34:28.172Z,100.00
2023-01-02T15:36:58.650Z,100.00
2023-01-02T15:39:34.324Z,100.00
2023-01-02T15:42:10.062Z,100.00
2023-01-02T15:44:58.483Z,100.00
2023-01-02T15:47:28.418Z,100.00
2023-01-02T15:49:58.969Z,100.00
2023-01-02T15:52:31.396Z,100.00
2023-01-02T15:55:00.825Z,100.00
2023-01-02T15:57:32.013Z,100.00
2023-01-02T16:00:02.162Z,100.00
2023-01-02T16:02:46.375Z,100.00
2023-01-02T16:05:17.313Z,100.00
2023-01-02T16:07:51.808Z,100.00
2023-01-02T16:10:23.709Z,100.00
2023-01-02T16:12:55.776Z,100.00
2023-01-02T16:15:29.909Z,100.00
2023-01-02T16:17:59.398Z,100.00
2023-01-02T16:20:29.327Z,100.00
2023-01-02T16:23:00.562Z,100.00
2023-01-02T16:25:31.164Z,100.00
2023-01-02T16:28:03.102Z,100.00
2023-01-02T16:30:39.173Z,100.00
2023-01-02T16:33:23.003Z,100.00
2023-01-02T16:36:00.321Z,100.00
2023-01-02T16:38:29.619Z,100.00
2023-01-02T16:41:04.777Z,100.00
2023-01-02T16:43:41.243Z,100.00
2023-01-02T16:46:18.729Z,100.00
2023-01-02T16:48:47.959Z,100.00
2023-01-02T16:51:17.739Z,100.00
2023-01-02T16:53:46.831Z,100.00
2023-01-02T16:56:16.139Z,100.00
2023-01-02T16:58:44.547Z,100.00
2023-01-02T17:01:16.230Z,100.00
2023-01-02T17:03:45.753Z,100.00
2023-01-02T17:06:15.276Z,100.00
2023-01-02T17:08:44.558Z,100.00
2023-01-02T17:11:16.611Z,100.00
2023-01-02T17:13:44.863Z,100.00
2023-01-02T17:16:14.774Z,100.00
2023-01-02T17:18:43.182Z,100.00
2023-01-02T17:21:11.820Z,100.00
2023-01-02T17:23:39.971Z,100.00
2023-01-02T17:26:07.937Z,100.00
2023-01-02T17:28:36.814Z,100.00
2023-01-02T17:31:05.360Z,100.00
2023-01-02T17:33:35.589Z,100.00
2023-01-02T17:36:07.538Z,100.00
2023-01-02T17:38:35.974Z,100.00
2023-01-02T17:41:04.069Z,100.00
2023-01-02T17:43:33.690Z,100.00
2023-01-02T17:46:30.416Z,100.00
2023-01-02T17:48:56.018Z,100.00
2023-01-02T17:51:24.002Z,100.00
2023-01-02T17:53:54.970Z,100.00
2023-01-02T17:56:24.489Z,100.00
2023-01-02T17:58:52.561Z,100.00
2023-01-02T18:01:22.014Z,100.00
2023-01-02T18:03:50.156Z,100.00
2023-01-02T18:06:20.528Z,100.00
2023-01-02T18:08:49.053Z,100.00
2023-01-02T18:11:17.973Z,100.00
2023-01-02T18:13:49.093Z,100.00
2023-01-02T18:16:21.121Z,100.00
2023-01-02T18:18:51.410Z,100.00
2023-01-02T18:21:23.265Z,100.00
2023-01-02T18:23:57.430Z,100.00
2023-01-02T18:26:26.797Z,100.00
2023-01-02T18:28:57.391Z,100.00
2023-01-02T18:31:26.752Z,100.00
2023-01-02T18:34:00.187Z,100.00
2023-01-02T18:36:30.002Z,100.00
2023-01-02T18:39:08.234Z,100.00
2023-01-02T18:41:39.860Z,100.00
2023-01-02T18:44:17.871Z,100.00
2023-01-02T18:47:01.876Z,100.00
2023-01-02T18:49:41.046Z,100.00
2023-01-02T18:52:25.801Z,100.00
2023-01-02T18:55:00.091Z,100.00
2023-01-02T18:57:32.427Z,100.00
2023-01-02T19:00:04.849Z,100.00
2023-01-02T19:02:40.716Z,100.00
2023-01-02T19:05:20.545Z,100.00
2023-01-02T19:07:50.087Z,100.00
2023-01-02T19:10:37.066Z,100.00
2023-01-02T19:13:08.521Z,100.00
2023-01-02T19:15:43.141Z,100.00
2023-01-02T19:18:35.379Z,100.00
2023-01-02T19:21:19.712Z,100.00
2023-01-02T19:23:54.003Z,100.00
2023-01-02T19:26:30.647Z,100.00
2023-01-02T19:29:01.172Z,100.00
2023-01-02T19:31:38.167Z,100.00
2023-01-02T19:34:24.989Z,100.00
2023-01-02T19:37:00.113Z,100.00
2023-01-02T19:39:34.651Z,100.00
2023-01-02T19:42:20.818Z,100.00
2023-01-02T19:44:49.768Z,100.00
2023-01-02T19:47:18.081Z,100.00
2023-01-02T19:49:46.252Z,100.00
2023-01-02T19:52:16.360Z,100.00
2023-01-02T19:54:46.697Z,100.00
2023-01-02T19:57:17.597Z,100.00
2023-01-02T19:59:46.749Z,100.00
2023-01-02T20:02:17.312Z,100.00
2023-01-02T20:04:46.018Z,100.00
2023-01-02T20:07:14.064Z,100.00
2023-01-02T20:09:42.152Z,100.00
2023-01-02T20:12:28.947Z,100.00
2023-01-02T20:14:57.313Z,100.00
2023-01-02T20:17:25.406Z,100.00
2023-01-02T20:19:53.296Z,100.00
2023-01-02T20:22:21.427Z,100.00
2023-01-02T20:24:49.519Z,100.00
2023-01-02T20:27:20.575Z,100.00
2023-01-02T20:29:48.768Z,100.00
2023-01-02T20:32:16.906Z,100.00
2023-01-02T20:34:45.366Z,100.00
2023-01-02T20:37:13.344Z,100.00
2023-01-02T20:39:41.356Z,100.00
2023-01-02T20:42:13.503Z,100.00
2023-01-02T20:44:43.722Z,100.00
2023-01-02T20:47:13.139Z,100.00
2023-01-02T20:49:41.548Z,100.00
2023-01-02T20:52:10.055Z,100.00
2023-01-02T20:54:38.290Z,100.00
2023-01-02T20:57:06.421Z,100.00
2023-01-02T20:59:34.532Z,100.00
2023-01-02T21:02:04.069Z,100.00
2023-01-02T21:04:36.719Z,100.00
2023-01-02T21:07:05.562Z,100.00
2023-01-02T21:09:33.933Z,100.00
2023-01-02T21:12:02.223Z,100.00
2023-01-02T21:14:37.132Z,100.00
2023-01-02T21:17:07.263Z,100.00
2023-01-02T21:19:35.280Z,100.00
2023-01-02T21:22:03.285Z,100.00
2023-01-02T21:24:31.273Z,100.00
2023-01-02T21:26:59.225Z,100.00
2023-01-02T21:29:27.412Z,100.00
2023-01-02T21:31:55.467Z,100.00
2023-01-02T21:34:24.985Z,100.00
2023-01-02T21:36:53.004Z,100.00
2023-01-02T21:39:23.391Z,100.00
2023-01-02T21:42:09.932Z,100.00
2023-01-02T21:44:38.044Z,100.00
2023-01-02T21:47:06.104Z,100.00
2023-01-02T21:49:35.601Z,100.00
2023-01-02T21:52:03.606Z,100.00
2023-01-02T21:54:31.694Z,100.00
2023-01-02T21:56:59.731Z,100.00
2023-01-02T21:59:28.006Z,100.00
2023-01-02T22:01:57.610Z,100.00
2023-01-02T22:04:25.781Z,100.00
2023-01-02T22:09:43.158Z,100.00
2023-01-02T22:12:11.113Z,100.00
2023-01-02T22:14:39.961Z,100.00
2023-01-02T22:17:10.375Z,100.00
2023-01-02T22:19:39.312Z,100.00
2023-01-02T22:22:09.039Z,100.00
2023-01-02T22:24:44.069Z,100.00
2023-01-02T22:27:14.809Z,100.00
2023-01-02T22:30:19.020Z,100.00
2023-01-02T22:32:33.696Z,100.00
2023-01-02T22:35:03.652Z,100.00
2023-01-02T22:37:33.291Z,100.00
2023-01-02T22:40:02.194Z,100.00
2023-01-02T22:43:07.443Z,100.00
2023-01-02T22:45:38.873Z,100.00
2023-01-02T22:48:15.242Z,100.00
2023-01-02T22:50:44.888Z,100.00
2023-01-02T22:53:23.517Z,100.00
2023-01-02T22:55:51.814Z,100.00
2023-01-02T22:58:20.578Z,100.00
2023-01-02T23:01:00.314Z,100.00
2023-01-02T23:03:29.667Z,100.00
2023-01-02T23:05:58.041Z,100.00
2023-01-02T23:08:28.255Z,100.00
2023-01-02T23:10:56.401Z,100.00
2023-01-02T23:13:24.546Z,100.00
2023-01-02T23:16:10.338Z,100.00
2023-01-02T23:18:57.125Z,100.00
2023-01-02T23:21:26.538Z,100.00
2023-01-02T23:23:56.258Z,100.00
2023-01-02T23:26:26.939Z,100.00
2023-01-02T23:29:06.639Z,100.00
2023-01-02T23:31:36.025Z,100.00
2023-01-02T23:34:04.134Z,100.00
2023-01-02T23:36:33.522Z,100.00
2023-01-02T23:39:04.939Z,100.00
2023-01-02T23:41:33.393Z,100.00
2023-01-02T23:44:01.535Z,100.00
2023-01-02T23:46:30.486Z,100.00
2023-01-02T23:48:58.628Z,100.00
2023-01-02T23:51:27.123Z,100.00
2023-01-02T23:53:55.255Z,100.00
2023-01-02T23:56:27.147Z,100.00
2023-01-02T23:58:58.461Z,100.00
